Tiempo atmosférico en la estación meteorológica de Teruel, Santa Eulalia del Campo, Teruel (1000 m.)



Fecha
DESCASC
Temp. máxima en grados centígrados (hora)
DESCASC
Temp. mínima en grados centígrados (hora)
DESCASC
Temp. media en grados centígrados
DESCASC
Racha de viento máxima en m/sg (hora)
DESCASC
Velocidad máxima media en intervalos de 10 minutos(hora)
DESCASC
Precipitaciones diarias en mm
DESCASC
Precipitaciones de 00:00 a 06:00 en mm
DESCASC
Precipitaciones de 06:00 a 12:00 en mm
DESCASC
Precipitaciones de 12:00 a 18:00 en mm
DESCASC
Precipitaciones de 18:00 a 24:00 en mm
DESCASC

Gráficas

Temp. máximas Temp. mínimas Temp. medias Precipitaciones Rachas de viento máximas Velocidades máximas media en intervalos de 10 minutos

Datos horarios

Fecha y hora oficial Temperatura (ºC) Velocidad del viento (km/h) Dirección del viento Racha (km/h) Dirección de racha Precipitación (mm) Presión (hPa) Tendencia (hPa) Humedad (%)
2019-10-18 23:00:00 12.8 6 Sur 14 Sur 0 -- -- 76
2019-10-18 22:00:00 14.1 8 Sur 12 Sudoeste 0 -- -- 66
2019-10-18 21:00:00 13.4 0 Calma 8 Oeste 0 -- -- 69
2019-10-18 20:00:00 15 4 Sudoeste 9 Oeste 0 -- -- 61
2019-10-18 19:00:00 17.9 8 Sudoeste 15 Sudoeste 0 -- -- 52
2019-10-18 18:00:00 19.1 5 Oeste 17 Noroeste 0 -- -- 51
2019-10-18 17:00:00 19.7 9 Oeste 24 Noroeste 0 -- -- 47
2019-10-18 16:00:00 20.4 8 Oeste 22 Noroeste 0 -- -- 50
2019-10-18 15:00:00 19.2 9 Noroeste 25 Noroeste 0 -- -- 50
2019-10-18 14:00:00 19.9 12 Oeste 27 Oeste 0 -- -- 50
2019-10-18 13:00:00 18.7 9 Sudoeste 16 Sudoeste 0 -- -- 60
2019-10-18 12:00:00 17.8 6 Oeste 19 Oeste 0 -- -- 63
2019-10-18 11:00:00 16.6 8 Sudoeste 11 Sudoeste 0 -- -- 71
2019-10-18 10:00:00 12.9 3 Sudoeste 9 Sur 0 -- -- 83
2019-10-18 09:00:00 11.9 3 Sur 10 Oeste 0 -- -- 85
2019-10-18 08:00:00 11.5 6 Sudoeste 13 Sudoeste 0 -- -- 86
2019-10-18 07:00:00 11.8 8 Sudoeste 15 Sur 0 -- -- 83
2019-10-18 06:00:00 11.5 0 Calma 8 Sudoeste 0 -- -- 85
2019-10-18 05:00:00 10.6 4 Sur 13 Sudoeste 0 -- -- 86
2019-10-18 04:00:00 10.3 0 Calma 6 Sudoeste 0 -- -- 86
2019-10-18 03:00:00 10.3 8 Sudoeste 16 Sudoeste 0 -- -- 85
2019-10-18 02:00:00 10.5 6 Sur 11 Sur 0 -- -- 83
2019-10-18 01:00:00 9.6 0 Calma 6 Sudoeste 0 -- -- 85
2019-10-18 00:00:00 11.1 0 Calma 10 Este 0 -- -- 78
2019-10-17 23:00:00 13.1 5 Oeste 19 Sudeste 0 -- -- 71
2019-10-17 22:00:00 11.9 5 Nordeste 24 Oeste 0 -- -- 76
2019-10-17 21:00:00 12.8 9 Oeste 24 Oeste 0 -- -- 72
2019-10-17 20:00:00 14.3 10 Oeste 19 Oeste 0 -- -- 66
2019-10-17 19:00:00 16.9 10 Noroeste 23 Oeste 0 -- -- 58
2019-10-17 18:00:00 18.9 11 Noroeste 22 Noroeste 0 -- -- 52
2019-10-17 17:00:00 18.8 3 Noroeste 14 Nordeste 0 -- -- 53
2019-10-17 16:00:00 17.3 3 Este 9 Nordeste 0 -- -- 56
2019-10-17 15:00:00 16.4 2 Noroeste 12 Nordeste 0 -- -- 49
2019-10-17 14:00:00 14.8 8 Nordeste 13 Nordeste 0 -- -- 46
2019-10-17 13:00:00 14.6 0 Calma 6 Noroeste 0 -- -- 34
2019-10-17 12:00:00 13.1 2 Noroeste 6 Noroeste 0 -- -- 43
2019-10-17 11:00:00 10.9 3 Sur 12 Sur 0 -- -- 56
2019-10-17 10:00:00 7.7 6 Sur 15 Sur 0 -- -- 64
2019-10-17 09:00:00 4.4 3 Sur 9 Sur 0 -- -- 73
2019-10-17 08:00:00 3.2 4 Sur 13 Sudoeste 0 -- -- 73
2019-10-17 07:00:00 2.5 9 Sur 12 Sur 0 -- -- 77
2019-10-17 06:00:00 3.3 3 Sudoeste 10 Sur 0 -- -- 75
2019-10-17 05:00:00 3.4 4 Sur 9 Sur 0 -- -- 72
2019-10-17 04:00:00 3.2 5 Sudoeste 9 Sur 0 -- -- 71
2019-10-17 03:00:00 4.3 0 Calma 9 Sur 0 -- -- 64
2019-10-17 02:00:00 6 5 Sur 13 Sudoeste 0 -- -- 59
2019-10-17 01:00:00 6.6 8 Sudoeste 12 Sudoeste 0 -- -- 57
2019-10-17 00:00:00 8.3 0 Calma 9 Norte 0 -- -- 52
2019-10-16 23:00:00 8.9 0 Calma 5 Sudoeste 0 -- -- 54
2019-10-16 22:00:00 12.2 0 Calma 26 Noroeste 0 -- -- 43
2019-10-16 21:00:00 13 7 Norte 17 Noroeste 0 -- -- 44
2019-10-16 20:00:00 13.8 4 Noroeste 6 Noroeste 0 -- -- 48
2019-10-16 19:00:00 18.1 3 Sudoeste 10 Sudoeste 0 -- -- 36
2019-10-16 18:00:00 19.4 6 Sudoeste 13 Sudoeste 0 -- -- 32
2019-10-16 17:00:00 20.4 5 Este 14 Este 0 -- -- 29
2019-10-16 16:00:00 20.1 5 Sur 13 Este 0 -- -- 30
2019-10-16 15:00:00 18.9 6 Sudeste 15 Sudeste 0 -- -- 32
2019-10-16 14:00:00 17.5 3 Este 14 Sudeste 0 -- -- 34
2019-10-16 13:00:00 16.4 5 Sur 13 Este 0 -- -- 34
2019-10-16 12:00:00 14.1 5 Sur 10 Sudeste 0 -- -- 43
2019-10-16 11:00:00 10.1 5 Sur 12 Sur 0 -- -- 62
2019-10-16 10:00:00 7.3 9 Sur 13 Sur 0 -- -- 68
2019-10-16 09:00:00 4.6 8 Sudoeste 13 Sudoeste 0 -- -- 77
2019-10-16 08:00:00 2.4 0 Calma 8 Sudeste 0 -- -- 86
2019-10-16 07:00:00 3.7 5 Sur 9 Sur 0 -- -- 81
2019-10-16 06:00:00 3.6 0 Calma -- -- 0 -- -- 81
2019-10-16 05:00:00 3.4 0 Calma -- -- 0 -- -- 82
2019-10-16 04:00:00 2.9 0 Calma -- -- 0 -- -- 83
2019-10-16 03:00:00 3.2 0 Calma 4 Noroeste 0 -- -- 81
2019-10-16 02:00:00 3.2 0 Calma 7 Sur 0 -- -- 79
2019-10-16 01:00:00 4.9 0 Calma 2 Este 0 -- -- 74
2019-10-16 00:00:00 6 0 Calma -- -- 0 -- -- 69
2019-10-15 23:00:00 7.9 0 Calma -- -- 0 -- -- 62
2019-10-15 22:00:00 7.5 0 Calma -- -- 0 -- -- 63
2019-10-15 21:00:00 9 0 Calma 5 Norte 0 -- -- 55
2019-10-15 20:00:00 10.6 3 Norte 19 Norte 0 -- -- 47
2019-10-15 19:00:00 13.9 12 Norte 28 Nordeste 0 -- -- 39
2019-10-15 18:00:00 15.4 17 Norte 28 Norte 0 -- -- 34
2019-10-15 17:00:00 15.8 19 Norte 27 Nordeste 0 -- -- 34
2019-10-15 16:00:00 15.7 13 Nordeste 30 Norte 0 -- -- 36
2019-10-15 15:00:00 14.2 19 Norte 37 Norte 0 -- -- 39
2019-10-15 14:00:00 13.4 19 Norte 44 Norte 0 -- -- 45
2019-10-15 13:00:00 12.1 19 Norte 35 Norte 0 -- -- 50
2019-10-15 12:00:00 10.6 22 Norte 37 Norte 0 -- -- 54
2019-10-15 11:00:00 8.9 23 Norte 36 Norte 0 -- -- 61
2019-10-15 10:00:00 7.5 14 Nordeste 24 Nordeste 0 -- -- 70
2019-10-15 09:00:00 4.7 11 Norte 18 Norte 0 -- -- 81
2019-10-15 08:00:00 4.6 14 Norte 20 Norte 0 -- -- 79
2019-10-15 07:00:00 5.5 15 Norte 27 Norte 0 -- -- 73
2019-10-15 06:00:00 6.2 16 Nordeste 30 Norte 0 -- -- 70
2019-10-15 05:00:00 6.6 21 Norte 45 Noroeste 0 -- -- 69
2019-10-15 04:00:00 7.2 26 Noroeste 41 Noroeste 0 -- -- 67
2019-10-15 03:00:00 7.6 17 Noroeste 29 Noroeste 0 -- -- 73
2019-10-15 02:00:00 7.5 9 Noroeste 20 Noroeste 0 -- -- 79
2019-10-15 01:00:00 8.7 7 Noroeste 22 Noroeste 0 -- -- 74
2019-10-15 00:00:00 10.3 8 Oeste 22 Noroeste 0 -- -- 65
2019-10-14 23:00:00 10.9 10 Noroeste 34 Noroeste 0 -- -- 70
2019-10-14 22:00:00 12.1 11 Noroeste 37 Noroeste 0 -- -- 63
2019-10-14 21:00:00 14 10 Noroeste 22 Oeste 0 -- -- 56
2019-10-14 20:00:00 15.3 7 Oeste 30 Sudoeste 0 -- -- 58
2019-10-14 19:00:00 17.2 18 Oeste 33 Sudoeste 0 -- -- 53
2019-10-14 18:00:00 18 16 Oeste 41 Oeste 0 -- -- 56
2019-10-14 17:00:00 15.8 18 Oeste 42 Sudoeste 0 -- -- 71
2019-10-14 16:00:00 19 26 Sudoeste 45 Sudoeste 0 -- -- 53
2019-10-14 15:00:00 17.7 22 Sur 33 Sur 0 -- -- 68
2019-10-14 14:00:00 17.4 19 Sur 51 Sur 0 -- -- 71
2019-10-14 13:00:00 15.6 36 Sur 54 Sur 0 -- -- 72
2019-10-14 12:00:00 13.5 27 Sur 48 Sur 1.4 -- -- 85
2019-10-14 11:00:00 16.2 18 Sur 32 Sur 0 -- -- 77
2019-10-14 10:00:00 14.8 19 Sur 31 Sur 0 -- -- 82
2019-10-14 09:00:00 13.8 9 Sur 23 Sur 0 -- -- 87
2019-10-14 08:00:00 13.2 8 Sudeste 21 Sudeste 0 -- -- 92
2019-10-14 07:00:00 13.3 6 Sur 22 Sur 0 -- -- 91
2019-10-14 06:00:00 13.2 15 Sur 23 Sur 0 -- -- 93
2019-10-14 05:00:00 11.7 9 Sudoeste 15 Sur 0 -- -- 96
2019-10-14 04:00:00 12.9 10 Sudoeste 16 Sudoeste 0 -- -- 94
2019-10-14 03:00:00 13.1 8 Sur 17 Sudoeste 0 -- -- 94
2019-10-14 02:00:00 12.7 8 Sur 20 Sudoeste 0 -- -- 90
2019-10-14 01:00:00 13.5 13 Sudoeste 20 Sur 0 -- -- 88
2019-10-14 00:00:00 14.1 10 Sudoeste 20 Sur 0 -- -- 88
2019-10-13 23:00:00 15.1 14 Sudoeste 21 Sudoeste 0 -- -- 84
2019-10-13 22:00:00 16.2 15 Sur 23 Sudoeste 0 -- -- 74
2019-10-13 21:00:00 17.6 12 Sudoeste 17 Sudoeste 0 -- -- 42
2019-10-13 20:00:00 18.5 11 Sudoeste 27 Sudoeste 0 -- -- 37
2019-10-13 19:00:00 22.4 18 Sudoeste 36 Sudoeste 0 -- -- 31
2019-10-13 18:00:00 24.3 19 Sudoeste 34 Sudoeste 0 -- -- 28
2019-10-13 17:00:00 24.3 17 Sudoeste 39 Sudoeste 0 -- -- 30
2019-10-13 16:00:00 25 25 Sudoeste 41 Sudoeste 0 -- -- 29
2019-10-13 15:00:00 24.9 27 Sudoeste 40 Sudoeste 0 -- -- 29
2019-10-13 14:00:00 24.3 25 Sudoeste 37 Sudoeste 0 -- -- 37
2019-10-13 13:00:00 22.3 19 Sur 28 Sur 0 -- -- 54
2019-10-13 12:00:00 20 18 Sur 31 Sur 0 -- -- 63
2019-10-13 11:00:00 17.1 18 Sur 28 Sur 0 -- -- 76
2019-10-13 10:00:00 15 12 Sur 18 Sur 0 -- -- 88
2019-10-13 09:00:00 11.8 3 Sur 13 Sudoeste 0 -- -- 97
2019-10-13 08:00:00 11 6 Sur 12 Sur 0 -- -- 98
2019-10-13 07:00:00 11.3 5 Sur 17 Sur 0 -- -- 96
2019-10-13 06:00:00 11.6 12 Sur 18 Sur 0 -- -- 95
2019-10-13 05:00:00 11.4 9 Sudoeste 17 Sur 0 -- -- 95
2019-10-13 04:00:00 11.6 10 Sur 16 Sur 0 -- -- 92
2019-10-13 03:00:00 11.6 5 Oeste 8 Oeste 0 -- -- 93
2019-10-13 02:00:00 13 4 Oeste 14 Sudoeste 0 -- -- 90
2019-10-13 01:00:00 13.6 6 Oeste 15 Sudoeste 0 -- -- 90
2019-10-13 00:00:00 13.3 9 Sur 14 Sur 0 -- -- 92
2019-10-12 23:00:00 14.3 7 Sur 19 Sudoeste 0 -- -- 88
2019-10-12 22:00:00 15.7 15 Sur 22 Sur 0 -- -- 84
2019-10-12 21:00:00 16.6 10 Sur 24 Sur 0 -- -- 77
2019-10-12 20:00:00 18.5 17 Sur 32 Sur 0 -- -- 66
2019-10-12 19:00:00 20.7 17 Sur 30 Sur 0 -- -- 53
2019-10-12 18:00:00 22.2 21 Sur 36 Sur 0 -- -- 46
2019-10-12 17:00:00 23.3 23 Sur 36 Sur 0 -- -- 34
2019-10-12 16:00:00 24.2 23 Sur 36 Sur 0 -- -- 35
2019-10-12 15:00:00 23.6 18 Sur 33 Sur 0 -- -- 39
2019-10-12 14:00:00 23 19 Sur 31 Sur 0 -- -- 40
2019-10-12 13:00:00 22.8 18 Sur 28 Sur 0 -- -- 43
2019-10-12 12:00:00 20.6 18 Sur 27 Sur 0 -- -- 53
2019-10-12 11:00:00 17.1 15 Sur 22 Sur 0 -- -- 74
2019-10-12 10:00:00 15.2 9 Sur 14 Sudoeste 0 -- -- 88
2019-10-12 09:00:00 13.7 10 Sudoeste 16 Sudoeste 0 -- -- 94
2019-10-12 08:00:00 13.3 8 Sur 13 Sudoeste 0 -- -- 94
2019-10-12 07:00:00 13.5 6 Sur 15 Sur 0 -- -- 94
2019-10-12 06:00:00 14.2 8 Sur 15 Sur 0 -- -- 92
2019-10-12 05:00:00 14.7 11 Sur 18 Sur 0 -- -- 90
2019-10-12 04:00:00 15.2 13 Sur 23 Sur 0 -- -- 88
2019-10-12 03:00:00 15.2 15 Sur 22 Sur 0 -- -- 88
2019-10-12 02:00:00 15.1 12 Sur 28 Sur 0 -- -- 90
2019-10-12 01:00:00 15.7 15 Sur 22 Sur 0 -- -- 87
2019-10-12 00:00:00 15.5 8 Sudoeste 19 Sur 0 -- -- 87
2019-10-11 23:00:00 16.6 12 Sur 22 Sur 0 -- -- 82
2019-10-11 22:00:00 17.7 16 Sur 25 Sur 0 -- -- 76
2019-10-11 21:00:00 18.8 17 Sur 24 Sur 0 -- -- 67
2019-10-11 20:00:00 20.2 15 Sur 28 Sur 0 -- -- 58
2019-10-11 19:00:00 21.8 18 Sur 32 Sur 0 -- -- 48
2019-10-11 18:00:00 23.9 23 Sur 39 Sur 0 -- -- 43
2019-10-11 17:00:00 24.8 26 Sur 40 Sur 0 -- -- 45
2019-10-11 16:00:00 25.9 23 Sur 36 Sur 0 -- -- 43
2019-10-11 15:00:00 25.9 23 Sur 38 Sudoeste 0 -- -- 41
2019-10-11 14:00:00 24.9 19 Sur 30 Sur 0 -- -- 45
2019-10-11 13:00:00 21.9 15 Sur 24 Sur 0 -- -- 58
2019-10-11 12:00:00 19 16 Sur 25 Sudoeste 0 -- -- 69
2019-10-11 11:00:00 16.1 15 Sur 24 Sur 0 -- -- 82
2019-10-11 10:00:00 14.3 12 Sur 17 Sur 0 -- -- 87
2019-10-11 09:00:00 12.5 6 Sudoeste 17 Sur 0 -- -- 93
2019-10-11 08:00:00 13.3 12 Sudoeste 15 Sudoeste 0 -- -- 92
2019-10-11 07:00:00 13.1 10 Sudoeste 15 Sur 0 -- -- 93
2019-10-11 06:00:00 13.1 9 Sur 22 Sur 0 -- -- 94
2019-10-11 05:00:00 13.6 13 Sur 21 Sur 0 -- -- 94
2019-10-11 04:00:00 12.7 6 Sur 15 Sur 0 -- -- 95
2019-10-11 03:00:00 13.2 12 Sur 18 Sur 0 -- -- 95
2019-10-11 02:00:00 12.6 12 Sur 17 Sur 0 -- -- 96
2019-10-11 01:00:00 13 13 Sudoeste 18 Sur 0 -- -- 93
2019-10-11 00:00:00 13.2 5 Sur 17 Sur 0 -- -- 92
2019-10-10 23:00:00 14.3 11 Sur 18 Sur 0 -- -- 88
2019-10-10 22:00:00 15.2 12 Sur 28 Sur 0 -- -- 85
2019-10-10 21:00:00 16.5 18 Sur 29 Sur 0 -- -- 79
2019-10-10 20:00:00 17.6 18 Sur 33 Sur 0 -- -- 73
2019-10-10 19:00:00 19.3 21 Sur 35 Sur 0 -- -- 65
2019-10-10 18:00:00 21.4 18 Sur 27 Sur 0 -- -- 59
2019-10-10 17:00:00 22.4 19 Sur 32 Sur 0 -- -- 56
2019-10-10 16:00:00 23 18 Sur 32 Sur 0 -- -- 53
2019-10-10 15:00:00 22 17 Sur 29 Sur 0 -- -- 56
2019-10-10 14:00:00 22.1 16 Sur 26 Sur 0 -- -- 56
2019-10-10 13:00:00 20.2 3 Sudeste 13 Este 0 -- -- 56
2019-10-10 12:00:00 17.1 6 Nordeste 12 Nordeste 0 -- -- 58
2019-10-10 11:00:00 14.3 4 Este 7 Sudeste 0 -- -- 60
2019-10-10 10:00:00 12.4 0 Calma 8 Norte 0 -- -- 64
2019-10-10 09:00:00 11.3 6 Norte 14 Norte 0 -- -- 67
2019-10-10 08:00:00 11 12 Norte 18 Norte 0 -- -- 67
2019-10-10 07:00:00 11.3 8 Nordeste 13 Nordeste 0 -- -- 66
2019-10-10 06:00:00 11.3 6 Nordeste 14 Nordeste 0 -- -- 66
2019-10-10 05:00:00 11.5 8 Nordeste 16 Norte 0 -- -- 65
2019-10-10 04:00:00 11.7 11 Nordeste 17 Norte 0 -- -- 65
2019-10-10 03:00:00 11.7 12 Norte 20 Norte 0 -- -- 66
2019-10-10 02:00:00 11.6 16 Norte 25 Noroeste 0 -- -- 66
2019-10-10 01:00:00 12.1 17 Norte 26 Norte 0 -- -- 66
2019-10-10 00:00:00 12.3 20 Norte 30 Noroeste 0 -- -- 66
2019-10-09 23:00:00 12.8 22 Norte 29 Norte 0 -- -- 67
2019-10-09 22:00:00 13.6 21 Norte 27 Norte 0 -- -- 68
2019-10-09 21:00:00 15.2 14 Norte 23 Norte 0 -- -- 67
2019-10-09 20:00:00 17.8 12 Norte 29 Norte 0 -- -- 61
2019-10-09 19:00:00 20 19 Norte 33 Norte 0 -- -- 55
2019-10-09 18:00:00 22.7 21 Norte 32 Norte 0 -- -- 48
2019-10-09 17:00:00 24 15 Norte 26 Norte 0 -- -- 44
2019-10-09 16:00:00 24.3 17 Norte 27 Norte 0 -- -- 43
2019-10-09 15:00:00 24.1 11 Nordeste 24 Norte 0 -- -- 45
2019-10-09 14:00:00 23 16 Norte 30 Norte 0 -- -- 47
2019-10-09 13:00:00 22.2 19 Nordeste 27 Norte 0 -- -- 50
2019-10-09 12:00:00 21.6 8 Nordeste 16 Nordeste 0 -- -- 52
2019-10-09 11:00:00 18.2 3 Norte 9 Norte 0 -- -- 57
2019-10-09 10:00:00 14.9 2 Norte 6 Nordeste 0 -- -- 75
2019-10-09 09:00:00 11.5 0 Calma 9 Sudoeste 0 -- -- 84
2019-10-09 08:00:00 9.3 0 Calma 7 Nordeste 0 -- -- 86
2019-10-09 07:00:00 10.3 3 Sudoeste 10 Sur 0 -- -- 82
2019-10-09 06:00:00 11.3 7 Sur 12 Sur 0 -- -- 81
2019-10-09 05:00:00 11 3 Sur 10 Sur 0 -- -- 77
2019-10-09 04:00:00 12.1 5 Sur 11 Sur 0 -- -- 74
2019-10-09 03:00:00 12.2 6 Sur 9 Sur 0 -- -- 79
2019-10-09 02:00:00 12.8 4 Sur 9 Sur 0 -- -- 73
2019-10-09 01:00:00 14.4 5 Sudoeste 9 Sur 0 -- -- 65
2019-10-09 00:00:00 14.8 4 Sur 9 Sur 0 -- -- 67
2019-10-08 23:00:00 15.2 0 Calma 6 Sur 0 -- -- 71
2019-10-08 22:00:00 17.8 3 Sur 8 Sur 0 -- -- 64
2019-10-08 21:00:00 20.7 7 Sudoeste 14 Sudoeste 0 -- -- 53
2019-10-08 20:00:00 21.7 3 Sudoeste 11 Sur 0 -- -- 51
2019-10-08 19:00:00 24.9 8 Sur 15 Sur 0 -- -- 43
2019-10-08 18:00:00 27 10 Sur 17 Sur 0 -- -- 37
2019-10-08 17:00:00 27.8 5 Sudeste 13 Sur 0 -- -- 37
2019-10-08 16:00:00 27 7 Sur 14 Sur 0 -- -- 38
2019-10-08 15:00:00 25.9 6 Sudeste 18 Sudoeste 0 -- -- 40
2019-10-08 14:00:00 24.7 9 Sur 17 Sur 0 -- -- 42
2019-10-08 13:00:00 23.5 7 Sur 13 Sur 0 -- -- 47
2019-10-08 12:00:00 21.2 6 Sur 12 Sudoeste 0 -- -- 49
2019-10-08 11:00:00 17.5 5 Sudoeste 11 Sur 0 -- -- 60
2019-10-08 10:00:00 13.6 6 Sur 10 Sur 0 -- -- 68
2019-10-08 09:00:00 10.4 5 Sur 8 Sur 0 -- -- 76
2019-10-08 08:00:00 9.3 0 Calma -- -- 0 -- -- 81
2019-10-08 07:00:00 8.4 0 Calma -- -- 0 -- -- 82
2019-10-08 06:00:00 9.3 0 Calma 10 Sur 0 -- -- 81
2019-10-08 05:00:00 9.6 0 Calma -- -- 0 -- -- 77
2019-10-08 04:00:00 10.9 0 Calma 10 Noroeste 0 -- -- 74
2019-10-08 03:00:00 10.8 0 Calma 9 Norte 0 -- -- 75
2019-10-08 02:00:00 11.7 0 Calma 7 Sur 0 -- -- 71
2019-10-08 01:00:00 13.6 5 Sudoeste 13 Noroeste 0 -- -- 62
2019-10-08 00:00:00 14.6 9 Norte 19 Norte 0 -- -- 56
2019-10-07 23:00:00 16 15 Norte 24 Norte 0 -- -- 55
2019-10-07 22:00:00 17.4 15 Noroeste 21 Norte 0 -- -- 57
2019-10-07 21:00:00 18.5 14 Norte 19 Norte 0 -- -- 53
2019-10-07 20:00:00 19.6 12 Nordeste 26 Nordeste 0 -- -- 51
2019-10-07 19:00:00 22.4 21 Norte 42 Norte 0 -- -- 42
2019-10-07 18:00:00 23.8 23 Norte 42 Norte 0 -- -- 37
2019-10-07 17:00:00 24.1 30 Norte 51 Norte 0 -- -- 36
2019-10-07 16:00:00 24.4 32 Norte 48 Norte 0 -- -- 29
2019-10-07 15:00:00 22.3 32 Norte 49 Norte 0 -- -- 31
2019-10-07 14:00:00 22 32 Norte 46 Norte 0 -- -- 28
2019-10-07 13:00:00 21.7 32 Norte 45 Nordeste 0 -- -- 25
2019-10-07 12:00:00 19.6 29 Norte 41 Nordeste 0 -- -- 27
2019-10-07 11:00:00 16 19 Norte 30 Norte 0 -- -- 46
2019-10-07 10:00:00 12.6 8 Nordeste 14 Nordeste 0 -- -- 64
2019-10-07 09:00:00 8.1 0 Calma -- -- 0 -- -- 97
2019-10-07 08:00:00 6.5 0 Calma -- -- 0 -- -- 95
2019-10-07 07:00:00 7.4 0 Calma -- -- 0 -- -- 96
2019-10-07 06:00:00 7.9 0 Calma 8 Norte 0 -- -- 94
2019-10-07 05:00:00 10.8 7 Norte 17 Norte 0 -- -- 88
2019-10-07 04:00:00 11 13 Norte 16 Norte 0 -- -- 88
2019-10-07 03:00:00 10.8 9 Norte 18 Norte 0 -- -- 88
2019-10-07 02:00:00 11.4 10 Norte 15 Norte 0 -- -- 85
2019-10-07 01:00:00 11.5 12 Noroeste 22 Norte 0 -- -- 84
2019-10-07 00:00:00 12.2 17 Norte 30 Norte 0 -- -- 81
2019-10-06 23:00:00 13.3 16 Norte 30 Norte 0 -- -- 75
2019-10-06 22:00:00 14.5 25 Norte 34 Noroeste 0 -- -- 72
2019-10-06 21:00:00 15.6 24 Norte 33 Norte 0 -- -- 67
2019-10-06 20:00:00 18.4 6 Noroeste 19 Nordeste 0 -- -- 48
2019-10-06 19:00:00 21.3 15 Nordeste 25 Norte 0 -- -- 42
2019-10-06 18:00:00 22.1 15 Nordeste 31 Norte 0 -- -- 42
2019-10-06 17:00:00 23.2 19 Nordeste 32 Norte 0 -- -- 39
2019-10-06 16:00:00 23.5 18 Nordeste 29 Nordeste 0 -- -- 39
2019-10-06 15:00:00 22.7 15 Nordeste 27 Nordeste 0 -- -- 40
2019-10-06 14:00:00 22 12 Nordeste 21 Nordeste 0 -- -- 43
2019-10-06 13:00:00 21 12 Nordeste 26 Nordeste 0 -- -- 46
2019-10-06 12:00:00 19.4 17 Nordeste 26 Nordeste 0 -- -- 49
2019-10-06 11:00:00 16.5 8 Nordeste 13 Nordeste 0 -- -- 58
2019-10-06 10:00:00 13.1 0 Calma 4 Este 0 -- -- 68
2019-10-06 09:00:00 8.8 0 Calma 5 Sur 0 -- -- 81
2019-10-06 08:00:00 7.1 0 Calma 10 Sudoeste 0 -- -- 85
2019-10-06 07:00:00 6.9 0 Calma -- -- 0 -- -- 87
2019-10-06 06:00:00 7.4 0 Calma 7 Sur 0 -- -- 86
2019-10-06 05:00:00 7.7 0 Calma -- -- 0 -- -- 83
2019-10-06 04:00:00 8.3 0 Calma -- -- 0 -- -- 81
2019-10-06 03:00:00 9.4 0 Calma -- -- 0 -- -- 79
2019-10-06 02:00:00 10.4 0 Calma 6 Noroeste 0 -- -- 73
2019-10-06 01:00:00 11.6 0 Calma 6 Noroeste 0 -- -- 68
2019-10-06 00:00:00 13.5 3 Noroeste 8 Oeste 0 -- -- 58
2019-10-05 23:00:00 14.8 0 Calma 12 Noroeste 0 -- -- 52
2019-10-05 22:00:00 16.6 6 Noroeste 13 Norte 0 -- -- 47
2019-10-05 21:00:00 18.3 10 Norte 16 Norte 0 -- -- 42
2019-10-05 20:00:00 19.8 5 Noroeste 10 Noroeste 0 -- -- 38
2019-10-05 19:00:00 23.3 4 Nordeste 11 Este 0 -- -- 31
2019-10-05 18:00:00 25.9 7 Norte 18 Norte 0 -- -- 29
2019-10-05 17:00:00 25.8 5 Sudeste 13 Norte 0 -- -- 31
2019-10-05 16:00:00 25.4 5 Nordeste 15 Nordeste 0 -- -- 35
2019-10-05 15:00:00 24.2 6 Norte 13 Nordeste 0 -- -- 39
2019-10-05 14:00:00 23.5 5 Este 14 Nordeste 0 -- -- 43
2019-10-05 13:00:00 22.3 8 Nordeste 16 Nordeste 0 -- -- 46
2019-10-05 12:00:00 20.2 3 Este 7 Este 0 -- -- 54
2019-10-05 11:00:00 15.9 4 Sur 12 Sur 0 -- -- 63
2019-10-05 10:00:00 12 6 Sur 10 Sur 0 -- -- 73
2019-10-05 09:00:00 9 6 Sudoeste 13 Sudoeste 0 -- -- 88
2019-10-05 08:00:00 7.6 8 Sudoeste 12 Sudoeste 0 -- -- 97
2019-10-05 07:00:00 7.5 0 Calma -- -- 0 -- -- 93
2019-10-05 06:00:00 8.2 0 Calma -- -- 0 -- -- 95
2019-10-05 05:00:00 9.2 0 Calma -- -- 0 -- -- 91
2019-10-05 04:00:00 9.4 0 Calma -- -- 0 -- -- 94
2019-10-05 03:00:00 11.1 0 Calma 10 Norte 0 -- -- 88
2019-10-05 02:00:00 13.1 12 Norte 21 Norte 0 -- -- 82
2019-10-05 01:00:00 14.2 9 Norte 16 Norte 0 -- -- 74
2019-10-05 00:00:00 15.1 12 Norte 21 Norte 0 -- -- 70
2019-10-04 23:00:00 16.7 6 Nordeste 27 Norte 0 -- -- 42
2019-10-04 22:00:00 18.3 9 Sudeste 19 Noroeste 0 -- -- 39
2019-10-04 21:00:00 19 7 Norte 19 Norte 0 -- -- 38
2019-10-04 20:00:00 21.2 13 Norte 20 Norte 0 -- -- 35
2019-10-04 19:00:00 24.3 4 Sudoeste 13 Sudeste 0 -- -- 30
2019-10-04 18:00:00 26.8 5 Sudeste 15 Sudeste 0 -- -- 27
2019-10-04 17:00:00 27 5 Sudeste 13 Sur 0 -- -- 27
2019-10-04 16:00:00 26.5 5 Sudoeste 15 Sudeste 0 -- -- 26
2019-10-04 15:00:00 25 5 Sudeste 13 Sudeste 0 -- -- 29
2019-10-04 14:00:00 23.7 4 Este 13 Sur 0 -- -- 33
2019-10-04 13:00:00 22.6 3 Nordeste 8 Sur 0 -- -- 38
2019-10-04 12:00:00 19.5 5 Sur 11 Sur 0 -- -- 43
2019-10-04 11:00:00 15.3 7 Sur 13 Sur 0 -- -- 54
2019-10-04 10:00:00 11.9 7 Sur 11 Sur 0 -- -- 62
2019-10-04 09:00:00 8.8 9 Sur 13 Sur 0 -- -- 72
2019-10-04 08:00:00 6.5 0 Calma -- -- 0 -- -- 80
2019-10-04 07:00:00 6.1 0 Calma 8 Sur 0 -- -- 82
2019-10-04 06:00:00 6.7 0 Calma -- -- 0 -- -- 78
2019-10-04 05:00:00 6.3 0 Calma -- -- 0 -- -- 80
2019-10-04 04:00:00 8.4 0 Calma 9 Norte 0 -- -- 71
2019-10-04 03:00:00 7.8 0 Calma -- -- 0 -- -- 73
2019-10-04 02:00:00 9.9 0 Calma -- -- 0 -- -- 64
2019-10-04 01:00:00 10.7 0 Calma 11 Noroeste 0 -- -- 62
2019-10-04 00:00:00 11.5 3 Noroeste 10 Noroeste 0 -- -- 58
2019-10-03 23:00:00 14.2 6 Noroeste 17 Norte 0 -- -- 49
2019-10-03 22:00:00 15.6 11 Norte 21 Norte 0 -- -- 45
2019-10-03 21:00:00 16.4 9 Norte 21 Norte 0 -- -- 41
2019-10-03 20:00:00 18.7 12 Norte 31 Nordeste 0 -- -- 34
2019-10-03 19:00:00 22.6 19 Nordeste 27 Norte 0 -- -- 23
2019-10-03 18:00:00 24.9 18 Norte 28 Norte 0 -- -- 19
2019-10-03 17:00:00 25.8 13 Nordeste 27 Nordeste 0 -- -- 19
2019-10-03 16:00:00 25.1 15 Nordeste 30 Norte 0 -- -- 18
2019-10-03 15:00:00 23.9 11 Norte 24 Norte 0 -- -- 25
2019-10-03 14:00:00 21.8 13 Norte 27 Norte 0 -- -- 31
2019-10-03 13:00:00 19 15 Nordeste 27 Nordeste 0 -- -- 46
2019-10-03 12:00:00 16.8 15 Nordeste 24 Nordeste 0 -- -- 51
2019-10-03 11:00:00 12.1 5 Norte 8 Nordeste 0 -- -- 70
2019-10-03 10:00:00 9.1 2 Sur 11 Sudeste 0 -- -- 79
2019-10-03 09:00:00 6.2 0 Calma -- -- 0 -- -- 91
2019-10-03 08:00:00 4.4 0 Calma -- -- 0 -- -- 94
2019-10-03 07:00:00 4.7 0 Calma 9 Sur 0 -- -- 95
2019-10-03 06:00:00 6.3 0 Calma -- -- 0 -- -- 92
2019-10-03 05:00:00 7.1 3 Norte 7 Noroeste 0 -- -- 89
2019-10-03 04:00:00 7.1 0 Calma -- -- 0 -- -- 90
2019-10-03 03:00:00 7.3 0 Calma 14 Norte 0 -- -- 90
2019-10-03 02:00:00 9.1 12 Norte 21 Norte 0 -- -- 84
2019-10-03 01:00:00 10 16 Norte 21 Norte 0 -- -- 80
2019-10-03 00:00:00 10.1 12 Norte 15 Norte 0 -- -- 77
2019-10-02 23:00:00 10.3 5 Norte 15 Norte 0 -- -- 74
2019-10-02 22:00:00 11.8 9 Nordeste 18 Norte 0 -- -- 68
2019-10-02 21:00:00 13.4 10 Norte 20 Norte 0 -- -- 62
2019-10-02 20:00:00 15.4 15 Nordeste 32 Norte 0 -- -- 53
2019-10-02 19:00:00 17.5 21 Nordeste 38 Norte 0 -- -- 46
2019-10-02 18:00:00 19.5 22 Norte 40 Norte 0 -- -- 40
2019-10-02 17:00:00 19.5 23 Norte 44 Norte 0 -- -- 40
2019-10-02 16:00:00 19.7 19 Nordeste 36 Norte 0 -- -- 41
2019-10-02 15:00:00 18.7 23 Norte 42 Nordeste 0 -- -- 42
2019-10-02 14:00:00 18.4 21 Norte 38 Norte 0 -- -- 44
2019-10-02 13:00:00 18.1 22 Nordeste 40 Norte 0 -- -- 44
2019-10-02 12:00:00 16.2 29 Norte 44 Norte 0 -- -- 49
2019-10-02 11:00:00 14.9 27 Norte 38 Norte 0 -- -- 60
2019-10-02 10:00:00 12.1 9 Nordeste 20 Nordeste 0 -- -- 71
2019-10-02 09:00:00 11.7 13 Nordeste 22 Norte 0 -- -- 71
2019-10-02 08:00:00 11.3 12 Norte 17 Norte 0 -- -- 72
2019-10-02 07:00:00 10.4 10 Norte 21 Nordeste 0 -- -- 74
2019-10-02 06:00:00 11.6 12 Nordeste 26 Norte 0 -- -- 67
2019-10-02 05:00:00 13.2 17 Noroeste 23 Noroeste 0 -- -- 62
2019-10-02 04:00:00 13.3 13 Norte 20 Noroeste 0 -- -- 63
2019-10-02 03:00:00 13.3 6 Nordeste 19 Norte 0 -- -- 65
2019-10-02 02:00:00 14 8 Nordeste 16 Nordeste 0 -- -- 63
2019-10-02 01:00:00 13.2 0 Calma 9 Nordeste 0 -- -- 66
2019-10-02 00:00:00 15.1 8 Noroeste 17 Noroeste 0 -- -- 59
2019-10-01 23:00:00 15.7 9 Noroeste 14 Noroeste 0 -- -- 57
2019-10-01 22:00:00 16.7 8 Norte 22 Norte 0 -- -- 53
2019-10-01 21:00:00 18.2 13 Norte 23 Norte 0 -- -- 49
2019-10-01 20:00:00 20.2 15 Nordeste 27 Nordeste 0 -- -- 44
2019-10-01 19:00:00 22.7 21 Nordeste 33 Norte 0 -- -- 40
2019-10-01 18:00:00 24.5 19 Norte 31 Norte 0 -- -- 38
2019-10-01 17:00:00 25.9 21 Noroeste 31 Noroeste 0 -- -- 22
2019-10-01 16:00:00 26.4 12 Noroeste 35 Noroeste 0 -- -- 23
2019-10-01 15:00:00 26.6 17 Noroeste 34 Noroeste 0 -- -- 22
2019-10-01 14:00:00 26.7 19 Noroeste 33 Noroeste 0 -- -- 23
2019-10-01 13:00:00 26.2 6 Nordeste 15 Este 0 -- -- 28
2019-10-01 12:00:00 23 3 Este 8 Sudeste 0 -- -- 42
2019-10-01 11:00:00 18.4 4 Sudoeste 15 Sudoeste 0 -- -- 55
2019-10-01 10:00:00 14.5 6 Sudoeste 15 Sur 0 -- -- 70
2019-10-01 09:00:00 11.2 7 Sur 11 Sur 0 -- -- 67
2019-10-01 08:00:00 9.3 0 Calma 12 Sur 0 -- -- 76
2019-10-01 07:00:00 10.1 7 Sur 12 Sur 0 -- -- 73
2019-10-01 06:00:00 9.6 0 Calma 5 Sur 0 -- -- 75
2019-10-01 05:00:00 10.2 0 Calma -- -- 0 -- -- 78
2019-10-01 04:00:00 11 0 Calma 10 Sur 0 -- -- 76
2019-10-01 03:00:00 12.9 5 Sur 8 Sudeste 0 -- -- 71
2019-10-01 02:00:00 13 8 Sudoeste 12 Sur 0 -- -- 58
2019-10-01 01:00:00 13.6 0 Calma 6 Oeste 0 -- -- 67
2019-10-01 00:00:00 14.2 0 Calma 5 Noroeste 0 -- -- 60
2019-09-30 23:00:00 16.5 0 Calma 10 Sudoeste 0 -- -- 51
2019-09-30 22:00:00 20 5 Sudoeste 14 Sudoeste 0 -- -- 37
2019-09-30 21:00:00 20.3 7 Sudeste 15 Oeste 0 -- -- 35
2019-09-30 20:00:00 21.9 8 Oeste 21 Noroeste 0 -- -- 32
2019-09-30 19:00:00 26.5 13 Noroeste 27 Noroeste 0 -- -- 22
2019-09-30 18:00:00 28.8 5 Noroeste 23 Sur 0 -- -- 20
2019-09-30 17:00:00 28.1 14 Sudeste 25 Sudeste 0 -- -- 24
2019-09-30 16:00:00 28.2 12 Sur 28 Sur 0 -- -- 22
2019-09-30 15:00:00 27.4 14 Sur 24 Sur 0 -- -- 25
2019-09-30 14:00:00 26.8 11 Sur 20 Sur 0 -- -- 27
2019-09-30 13:00:00 24.9 7 Sur 14 Sur 0 -- -- 32
2019-09-30 12:00:00 21.7 5 Sur 10 Sur 0 -- -- 38
2019-09-30 11:00:00 18.3 5 Sur 10 Sur 0 -- -- 45
2019-09-30 10:00:00 14 5 Sur 8 Sur 0 -- -- 57
2019-09-30 09:00:00 10.2 4 Sur 8 Sur 0 -- -- 71
2019-09-30 08:00:00 8.5 0 Calma -- -- 0 -- -- 75
2019-09-30 07:00:00 9.6 0 Calma 10 Sudoeste 0 -- -- 73
2019-09-30 06:00:00 9.4 8 Sur 12 Sur 0 -- -- 74
2019-09-30 05:00:00 11.4 0 Calma 8 Oeste 0 -- -- 61
2019-09-30 04:00:00 11.5 0 Calma -- -- 0 -- -- 66
2019-09-30 03:00:00 13.4 5 Noroeste 12 Noroeste 0 -- -- 56
2019-09-30 02:00:00 11.6 0 Calma -- -- 0 -- -- 69
2019-09-30 01:00:00 13.7 0 Calma -- -- 0 -- -- 58
2019-09-30 00:00:00 15 0 Calma -- -- 0 -- -- 53
2019-09-29 23:00:00 17.4 0 Calma 11 Sudeste 0 -- -- 44
2019-09-29 22:00:00 18.2 0 Calma 19 Noroeste 0 -- -- 40
2019-09-29 21:00:00 20.4 14 Noroeste 21 Noroeste 0 -- -- 33
2019-09-29 20:00:00 22.8 11 Noroeste 16 Noroeste 0 -- -- 28
2019-09-29 19:00:00 26 15 Norte 24 Norte 0 -- -- 24
2019-09-29 18:00:00 27.8 15 Noroeste 27 Norte 0 -- -- 21
2019-09-29 17:00:00 28.4 13 Noroeste 25 Noroeste 0 -- -- 20
2019-09-29 16:00:00 28.9 6 Oeste 16 Sur 0 -- -- 27
2019-09-29 15:00:00 28 7 Sur 17 Sur 0 -- -- 28
2019-09-29 14:00:00 26.9 8 Sudeste 14 Sudeste 0 -- -- 33
2019-09-29 13:00:00 24.8 7 Sur 14 Sur 0 -- -- 42
2019-09-29 12:00:00 21.4 7 Sur 17 Sur 0 -- -- 62
2019-09-29 11:00:00 17.9 8 Sudoeste 17 Sur 0 -- -- 73
2019-09-29 10:00:00 13.1 9 Sur 15 Sur 0 -- -- 99
2019-09-29 09:00:00 12.4 7 Sudoeste 11 Oeste 0 -- -- 99
2019-09-29 08:00:00 12 7 Sudoeste 12 Oeste 0 -- -- 99
2019-09-29 07:00:00 11.9 9 Oeste 13 Sudoeste 0 -- -- 98
2019-09-29 06:00:00 12 7 Sudoeste 13 Sudoeste 0 -- -- 97
2019-09-29 05:00:00 12.8 5 Sudoeste 10 Oeste 0 -- -- 96
2019-09-29 04:00:00 12.1 7 Sudoeste 11 Sudoeste 0 -- -- 84
2019-09-29 03:00:00 12.7 8 Sudoeste 13 Sudoeste 0 -- -- 69
2019-09-29 02:00:00 13.6 7 Sudoeste 13 Sudoeste 0 -- -- 87
2019-09-29 01:00:00 14.7 9 Sudoeste 15 Sudoeste 0 -- -- 51
2019-09-29 00:00:00 15.1 8 Sudoeste 14 Sudoeste 0 -- -- 78
2019-09-28 23:00:00 17 8 Sudoeste 17 Sudoeste 0 -- -- 55
2019-09-28 22:00:00 18 6 Sudoeste 19 Sudoeste 0 -- -- 56
2019-09-28 21:00:00 19.3 8 Sur 15 Sur 0 -- -- 54
2019-09-28 20:00:00 22.1 7 Oeste 15 Oeste 0 -- -- 34
2019-09-28 19:00:00 25.5 6 Oeste 22 Noroeste 0 -- -- 28
2019-09-28 18:00:00 27.7 8 Noroeste 34 Sur 0 -- -- 24
2019-09-28 17:00:00 26.7 13 Sudoeste 29 Sudeste 0 -- -- 26
2019-09-28 16:00:00 26.7 16 Sudeste 28 Sur 0 -- -- 33
2019-09-28 15:00:00 26.3 15 Sur 28 Sur 0 -- -- 32
2019-09-28 14:00:00 25.2 16 Sur 26 Sudoeste 0 -- -- 33
2019-09-28 13:00:00 23.7 12 Sur 20 Sur 0 -- -- 39
2019-09-28 12:00:00 20.7 7 Sur 11 Sur 0 -- -- 46
2019-09-28 11:00:00 17.3 4 Sur 8 Sudoeste 0 -- -- 56
2019-09-28 10:00:00 14.5 0 Calma 6 Sudeste 0 -- -- 60
2019-09-28 09:00:00 11 4 Sudoeste 8 Oeste 0 -- -- 70
2019-09-28 08:00:00 7.7 0 Calma -- -- 0 -- -- 86
2019-09-28 07:00:00 8.2 0 Calma -- -- 0 -- -- 81
2019-09-28 06:00:00 8.6 0 Calma -- -- 0 -- -- 85
2019-09-28 05:00:00 9.1 0 Calma -- -- 0 -- -- 83
2019-09-28 04:00:00 9.8 0 Calma -- -- 0 -- -- 80
2019-09-28 03:00:00 10.9 0 Calma -- -- 0 -- -- 76
2019-09-28 02:00:00 12.2 0 Calma -- -- 0 -- -- 68
2019-09-28 01:00:00 13.5 0 Calma 11 Norte 0 -- -- 61
2019-09-28 00:00:00 16.4 5 Norte 19 Norte 0 -- -- 48
2019-09-27 23:00:00 17.7 10 Norte 21 Norte 0 -- -- 48
2019-09-27 22:00:00 19.2 9 Norte 18 Noroeste 0 -- -- 41
2019-09-27 21:00:00 19.6 11 Noroeste 20 Noroeste 0 -- -- 40
2019-09-27 20:00:00 21.8 9 Noroeste 13 Noroeste 0 -- -- 39
2019-09-27 19:00:00 24.6 6 Nordeste 14 Norte 0 -- -- 37
2019-09-27 18:00:00 24.8 6 Nordeste 11 Norte 0 -- -- 38
2019-09-27 17:00:00 27 4 Este 14 Este 0 -- -- 34
2019-09-27 16:00:00 26.8 7 Sudeste 13 Este 0 -- -- 38
2019-09-27 15:00:00 25.5 7 Sudeste 13 Noroeste 0 -- -- 39
2019-09-27 14:00:00 25.3 4 Nordeste 12 Sudeste 0 -- -- 40
2019-09-27 13:00:00 24 6 Sur 14 Sudeste 0 -- -- 40
2019-09-27 12:00:00 21.9 6 Sur 12 Sudoeste 0 -- -- 51
2019-09-27 11:00:00 18.2 8 Sur 11 Sur 0 -- -- 61
2019-09-27 10:00:00 15.1 5 Sur 9 Sudoeste 0 -- -- 72
2019-09-27 09:00:00 11.7 6 Sur 9 Sur 0 -- -- 85
2019-09-27 08:00:00 9.6 5 Sur 8 Sur 0 -- -- 90
2019-09-27 07:00:00 10.6 0 Calma 6 Sur 0 -- -- 85
2019-09-27 06:00:00 11 4 Oeste 9 Sudoeste 0 -- -- 84
2019-09-27 05:00:00 10.8 0 Calma -- -- 0 -- -- 88
2019-09-27 04:00:00 12.8 0 Calma 10 Oeste 0 -- -- 78
2019-09-27 03:00:00 13.8 3 Oeste 8 Oeste 0 -- -- 73
2019-09-27 02:00:00 12.8 0 Calma 4 Oeste 0 -- -- 82
2019-09-27 01:00:00 14.4 0 Calma 5 Oeste 0 -- -- 74
2019-09-27 00:00:00 15.1 2 Sur 8 Sur 0 -- -- 71
2019-09-26 23:00:00 17 3 Oeste 9 Noroeste 0 -- -- 61
2019-09-26 22:00:00 17.9 4 Noroeste 10 Norte 0 -- -- 60
2019-09-26 21:00:00 20.9 4 Oeste 16 Sudeste 0 -- -- 49
2019-09-26 20:00:00 22.2 7 Sudeste 16 Sudeste 0 -- -- 44
2019-09-26 19:00:00 24.4 8 Sudeste 20 Sudeste 0 -- -- 40
2019-09-26 18:00:00 26.1 10 Sudeste 21 Sur 0 -- -- 36
2019-09-26 17:00:00 26.1 12 Sur 23 Sur 0 -- -- 38
2019-09-26 16:00:00 25.8 11 Sur 22 Sur 0 -- -- 37
2019-09-26 15:00:00 25 9 Sur 18 Sur 0 -- -- 39
2019-09-26 14:00:00 24 9 Sur 18 Sur 0 -- -- 39
2019-09-26 13:00:00 21.9 9 Sur 17 Sudeste 0 -- -- 46
2019-09-26 12:00:00 19.8 9 Sur 15 Sudeste 0 -- -- 51
2019-09-26 11:00:00 17.2 8 Sur 12 Sur 0 -- -- 60
2019-09-26 10:00:00 13.1 6 Sur 10 Sur 0 -- -- 75
2019-09-26 09:00:00 10.5 4 Sur 8 Sur 0 -- -- 83
2019-09-26 08:00:00 8.4 0 Calma -- -- 0 -- -- 90
2019-09-26 07:00:00 8.1 0 Calma -- -- 0 -- -- 93
2019-09-26 06:00:00 9.1 0 Calma -- -- 0 -- -- 89
2019-09-26 05:00:00 9.4 0 Calma -- -- 0 -- -- 89
2019-09-26 04:00:00 9.9 0 Calma 6 Noroeste 0 -- -- 86
2019-09-26 03:00:00 10.7 0 Calma 6 Sudoeste 0 -- -- 83
2019-09-26 02:00:00 11.5 4 Noroeste 6 Noroeste 0 -- -- 78
2019-09-26 01:00:00 12 2 Sur 5 Sur 0 -- -- 75
2019-09-26 00:00:00 12.6 0 Calma 15 Norte 0 -- -- 73
2019-09-25 23:00:00 14.7 12 Norte 15 Norte 0 -- -- 63
2019-09-25 22:00:00 15.1 2 Nordeste 12 Noroeste 0 -- -- 63
2019-09-25 21:00:00 15.9 6 Norte 20 Nordeste 0 -- -- 57
2019-09-25 20:00:00 17.9 15 Nordeste 22 Nordeste 0 -- -- 47
2019-09-25 19:00:00 19.6 15 Nordeste 27 Nordeste 0 -- -- 43
2019-09-25 18:00:00 22 15 Nordeste 24 Nordeste 0 -- -- 39
2019-09-25 17:00:00 22.3 15 Nordeste 25 Nordeste 0 -- -- 40
2019-09-25 16:00:00 22.2 14 Nordeste 26 Nordeste 0 -- -- 43
2019-09-25 15:00:00 21.2 11 Nordeste 27 Nordeste 0 -- -- 44
2019-09-25 14:00:00 20.4 12 Nordeste 24 Norte 0 -- -- 48
2019-09-25 13:00:00 19.2 12 Nordeste 24 Nordeste 0 -- -- 50
2019-09-25 12:00:00 18 12 Nordeste 26 Norte 0 -- -- 54
2019-09-25 11:00:00 15.9 19 Nordeste 30 Norte 0 -- -- 60
2019-09-25 10:00:00 14.4 15 Norte 27 Norte 0 -- -- 68
2019-09-25 09:00:00 13.9 14 Norte 20 Norte 0 -- -- 76
2019-09-25 08:00:00 13.5 8 Nordeste 21 Norte 0 -- -- 79
2019-09-25 07:00:00 14.1 11 Norte 23 Norte 0 -- -- 80
2019-09-25 06:00:00 14.5 15 Nordeste 27 Nordeste 0 -- -- 77
2019-09-25 05:00:00 14.9 13 Nordeste 25 Norte 0 -- -- 80
2019-09-25 04:00:00 16 10 Norte 17 Norte 0 -- -- 81
2019-09-25 03:00:00 14.9 6 Norte 13 Norte 0 -- -- 86
2019-09-25 02:00:00 15.8 10 Norte 16 Norte 0 -- -- 82
2019-09-25 01:00:00 16.1 5 Oeste 10 Oeste 0 -- -- 71
2019-09-25 00:00:00 16.6 5 Norte 14 Norte 0 -- -- 65
2019-09-24 23:00:00 17.3 3 Sudeste 6 Oeste 0 -- -- 61
2019-09-24 22:00:00 18.4 0 Calma 20 Oeste 0 -- -- 57
2019-09-24 21:00:00 19.4 9 Noroeste 14 Noroeste 0 -- -- 58
2019-09-24 20:00:00 21.5 6 Noroeste 21 Noroeste 0 -- -- 53
2019-09-24 19:00:00 24.1 17 Noroeste 27 Noroeste 0 -- -- 44
2019-09-24 18:00:00 25.6 14 Noroeste 30 Noroeste 0 -- -- 37
2019-09-24 17:00:00 26.1 15 Noroeste 32 Noroeste 0 -- -- 35
2019-09-24 16:00:00 26.2 14 Norte 30 Noroeste 0 -- -- 30
2019-09-24 15:00:00 25.9 16 Noroeste 26 Noroeste 0 -- -- 32
2019-09-24 14:00:00 25.8 14 Noroeste 24 Oeste 0 -- -- 32
2019-09-24 13:00:00 23.4 7 Sur 13 Sur 0 -- -- 41
2019-09-24 12:00:00 20.6 9 Sur 14 Sur 0 -- -- 55
2019-09-24 11:00:00 17.3 10 Sudoeste 16 Sudoeste 0 -- -- 67
2019-09-24 10:00:00 13.6 10 Sudoeste 19 Sur 0 -- -- 77
2019-09-24 09:00:00 9.4 8 Sudoeste 13 Sur 0 -- -- 93
2019-09-24 08:00:00 8.4 0 Calma 9 Sur 0 -- -- 93
2019-09-24 07:00:00 9 3 Sur 9 Sur 0 -- -- 90
2019-09-24 06:00:00 9.2 4 Sudoeste 9 Sur 0 -- -- 91
2019-09-24 05:00:00 10.1 3 Sudoeste 8 Sudoeste 0 -- -- 88
2019-09-24 04:00:00 10.4 0 Calma 6 Sudeste 0 -- -- 92
2019-09-24 03:00:00 11 4 Sur 8 Sur 0 -- -- 90
2019-09-24 02:00:00 11.4 0 Calma 5 Noroeste 0 -- -- 86
2019-09-24 01:00:00 12.2 0 Calma 8 Oeste 0 -- -- 86
2019-09-24 00:00:00 13.8 5 Noroeste 8 Noroeste 0 -- -- 70
2019-09-23 23:00:00 14.4 0 Calma 5 Nordeste 0 -- -- 77
2019-09-23 22:00:00 16.1 5 Norte 18 Noroeste 0 -- -- 66
2019-09-23 21:00:00 17.7 10 Noroeste 17 Noroeste 0 -- -- 61
2019-09-23 20:00:00 18.7 0 Calma 5 Nordeste 0 -- -- 66
2019-09-23 19:00:00 20.6 6 Nordeste 13 Nordeste 0 -- -- 53
2019-09-23 18:00:00 21.4 6 Este 11 Noroeste 0 -- -- 48
2019-09-23 17:00:00 23.1 0 Calma 14 Sudoeste 0 -- -- 42
2019-09-23 16:00:00 22 6 Sur 14 Sur 0 -- -- 44
2019-09-23 15:00:00 21.4 4 Sur 18 Sur 0 -- -- 45
2019-09-23 14:00:00 19.8 6 Sur 16 Sudoeste 0 -- -- 50
2019-09-23 13:00:00 18.6 7 Sudeste 15 Sur 0 -- -- 53
2019-09-23 12:00:00 17.6 4 Sur 10 Sudoeste 0 -- -- 54
2019-09-23 11:00:00 14.8 4 Sur 8 Sur 0 -- -- 68
2019-09-23 10:00:00 11.9 5 Sur 8 Sur 0 -- -- 79
2019-09-23 09:00:00 8.7 0 Calma 3 Sur 0 -- -- 90
2019-09-23 08:00:00 6.8 0 Calma 6 Sur 0 -- -- 96
2019-09-23 07:00:00 7.4 0 Calma 6 Sur 0 -- -- 94
2019-09-23 06:00:00 7.7 4 Sur 6 Noroeste 0 -- -- 95
2019-09-23 05:00:00 8.5 2 Oeste 6 Noroeste 0 -- -- 94
2019-09-23 04:00:00 8.7 0 Calma 3 Sur 0 -- -- 95
2019-09-23 03:00:00 9.6 0 Calma 4 Noroeste 0 -- -- 94
2019-09-23 02:00:00 10.3 0 Calma 4 Oeste 0 -- -- 92
2019-09-23 01:00:00 11.6 0 Calma 5 Nordeste 0 -- -- 87
2019-09-23 00:00:00 13.4 4 Norte 12 Norte 0 -- -- 80
2019-09-22 23:00:00 13.1 4 Norte 10 Norte 0 -- -- 78
2019-09-22 22:00:00 14 5 Este 18 Norte 0 -- -- 74
2019-09-22 21:00:00 15.3 13 Norte 18 Norte 0 -- -- 73
2019-09-22 20:00:00 16.5 12 Norte 26 Noroeste 0 -- -- 75
2019-09-22 19:00:00 19.9 18 Noroeste 26 Noroeste 0 -- -- 44
2019-09-22 18:00:00 19.5 11 Nordeste 18 Nordeste 0 -- -- 74
2019-09-22 17:00:00 18.1 14 Nordeste 22 Norte 0 -- -- 79
2019-09-22 16:00:00 18.3 14 Nordeste 38 Noroeste 0 -- -- 81
2019-09-22 15:00:00 20.9 18 Oeste 33 Oeste 0 -- -- 57
2019-09-22 14:00:00 21.8 18 Oeste 36 Oeste 0 -- -- 53
2019-09-22 13:00:00 21.3 13 Oeste 32 Noroeste 0 -- -- 54
2019-09-22 12:00:00 20.3 15 Noroeste 31 Sudoeste 0 -- -- 60
2019-09-22 11:00:00 19.9 17 Oeste 29 Oeste 0 -- -- 61
2019-09-22 10:00:00 18.6 11 Sudoeste 28 Sudoeste 0 -- -- 67
2019-09-22 09:00:00 15.3 7 Sur 16 Sur 0 -- -- 85
2019-09-22 08:00:00 13.8 8 Sudeste 17 Sur 0 -- -- 85
2019-09-22 07:00:00 13.7 3 Sudeste 16 Sudoeste 0 -- -- 86
2019-09-22 06:00:00 15.3 14 Sur 21 Sur 0 -- -- 78
2019-09-22 05:00:00 15.5 10 Sudoeste 20 Sudoeste 0 -- -- 77
2019-09-22 04:00:00 15.3 9 Sur 22 Sudoeste 0 -- -- 85
2019-09-22 03:00:00 15.2 12 Sur 18 Sur 0 -- -- 85
2019-09-22 02:00:00 16.1 15 Sur 24 Sur 0 -- -- 83
2019-09-22 01:00:00 15.7 10 Sur 18 Sur 0 -- -- 87
2019-09-22 00:00:00 15.9 10 Sur 15 Sur 0 -- -- 84
2019-09-21 23:00:00 16.1 4 Sur 14 Sudoeste 0 -- -- 82
2019-09-21 22:00:00 17.3 5 Sur 12 Sudoeste 0 -- -- 77
2019-09-21 21:00:00 18.9 11 Sudoeste 17 Sudoeste 0 -- -- 63
2019-09-21 20:00:00 19.4 10 Oeste 22 Oeste 0 -- -- 58
2019-09-21 19:00:00 20.4 11 Oeste 22 Sudoeste 0 -- -- 54
2019-09-21 18:00:00 21.8 11 Oeste 24 Sudoeste 0 -- -- 48
2019-09-21 17:00:00 23.6 11 Oeste 24 Oeste 0 -- -- 46
2019-09-21 16:00:00 21.8 16 Oeste 27 Sudoeste 0 -- -- 49
2019-09-21 15:00:00 21.9 13 Sudoeste 25 Sudoeste 0 -- -- 49
2019-09-21 14:00:00 20.5 10 Sur 25 Sur 0 -- -- 63
2019-09-21 13:00:00 19.2 16 Sur 26 Sur 0 -- -- 70
2019-09-21 12:00:00 19 10 Sur 20 Sur 0 -- -- 69
2019-09-21 11:00:00 17.1 12 Sur 23 Sur 0 -- -- 78
2019-09-21 10:00:00 14.8 8 Sur 16 Sur 0 -- -- 88
2019-09-21 09:00:00 12.7 8 Sur 23 Sur 0 -- -- 95
2019-09-21 08:00:00 12.8 10 Sur 19 Sur 0 -- -- 96
2019-09-21 07:00:00 13.1 13 Sur 22 Sudoeste 1 -- -- 97
2019-09-21 06:00:00 13.1 12 Sur 27 Sudoeste 4.2 -- -- 98
2019-09-21 05:00:00 13.3 12 Sur 19 Sur 1.2 -- -- 96
2019-09-21 04:00:00 13.2 14 Sur 20 Sur 0.8 -- -- 95
2019-09-21 03:00:00 13.5 13 Sur 19 Sur 0.4 -- -- 91
2019-09-21 02:00:00 13.2 8 Sudeste 31 Sudoeste 2.8 -- -- 95
2019-09-21 01:00:00 14.6 23 Sudoeste 41 Sudoeste 0.6 -- -- 82
2019-09-21 00:00:00 15.6 18 Sudoeste 30 Sur 0 -- -- 84
2019-09-20 23:00:00 16.6 15 Sur 36 Sur 0 -- -- 84
2019-09-20 22:00:00 16.7 17 Sur 31 Sur 0 -- -- 83
2019-09-20 21:00:00 16.9 19 Sur 34 Sur 0 -- -- 81
2019-09-20 20:00:00 17.8 23 Sur 40 Sur 0 -- -- 75
2019-09-20 19:00:00 19.5 22 Sur 40 Sur 0 -- -- 68
2019-09-20 18:00:00 20.3 26 Sur 40 Sur 0 -- -- 68
2019-09-20 17:00:00 20.7 25 Sur 38 Sur 0 -- -- 62
2019-09-20 16:00:00 21.3 23 Sur 37 Sur 0 -- -- 61
2019-09-20 15:00:00 21.5 19 Sur 35 Sur 0 -- -- 60
2019-09-20 14:00:00 21.1 18 Sur 30 Sur 0 -- -- 61
2019-09-20 13:00:00 20 17 Sur 29 Sur 0 -- -- 68
2019-09-20 12:00:00 18.7 19 Sur 29 Sur 0 -- -- 72
2019-09-20 11:00:00 17.1 14 Sur 27 Sur 0 -- -- 82
2019-09-20 10:00:00 15.1 9 Sur 14 Sur 0 -- -- 92
2019-09-20 09:00:00 12 4 Sur 12 Sur 0 -- -- 99
2019-09-20 08:00:00 11.4 6 Sudoeste 9 Sur 0 -- -- 98
2019-09-20 07:00:00 11.5 5 Sur 11 Sudoeste 0 -- -- 97
2019-09-20 06:00:00 11.6 6 Sur 10 Sur 0 -- -- 99
2019-09-20 05:00:00 12.2 6 Sur 9 Sudoeste 0 -- -- 98
2019-09-20 04:00:00 12.7 5 Sur 13 Sudoeste 0 -- -- 95
2019-09-20 03:00:00 13.1 8 Sudoeste 12 Sur 0 -- -- 95
2019-09-20 02:00:00 13.3 5 Sudoeste 10 Sur 0 -- -- 96
2019-09-20 01:00:00 13.7 4 Sudeste 7 Sudeste 0 -- -- 97
2019-09-20 00:00:00 14.7 6 Sudoeste 12 Sudoeste 0 -- -- 92
2019-09-19 23:00:00 14.9 4 Sudoeste 10 Sudoeste 0 -- -- 91
2019-09-19 22:00:00 15.1 0 Calma 17 Sudoeste 0 -- -- 92
2019-09-19 21:00:00 16 15 Sudoeste 33 Sur 1.4 -- -- 83
2019-09-19 20:00:00 17.3 19 Oeste 27 Oeste 0 -- -- 79
2019-09-19 19:00:00 19.1 8 Sudoeste 16 Sur 1.4 -- -- 73
2019-09-19 18:00:00 18.5 5 Sudoeste 33 Sur 0.6 -- -- 74
2019-09-19 17:00:00 22.5 8 Sudoeste 33 Sur 0 -- -- 53
2019-09-19 16:00:00 25.3 9 Sur 20 Sur 0 -- -- 36
2019-09-19 15:00:00 23.9 10 Sur 19 Sur 0 -- -- 46
2019-09-19 14:00:00 22.8 7 Sur 21 Sudeste 0 -- -- 53
2019-09-19 13:00:00 23 13 Sur 20 Sur 0 -- -- 53
2019-09-19 12:00:00 20.7 12 Sur 19 Sudoeste 0 -- -- 63
2019-09-19 11:00:00 17.8 11 Sur 15 Sur 0 -- -- 74
2019-09-19 10:00:00 14.4 5 Sur 8 Sur 0 -- -- 86
2019-09-19 09:00:00 11.7 4 Sur 5 Sur 0 -- -- 93
2019-09-19 08:00:00 10.2 2 Noroeste 5 Oeste 0 -- -- 96
2019-09-19 07:00:00 10.8 2 Sur 10 Sudoeste 0 -- -- 95
2019-09-19 06:00:00 11.1 8 Sudoeste 11 Sudoeste 0 -- -- 95
2019-09-19 05:00:00 11.6 7 Sur 10 Sur 0 -- -- 94
2019-09-19 04:00:00 12.2 7 Sudoeste 9 Sudoeste 0 -- -- 93
2019-09-19 03:00:00 11.7 0 Calma 6 Sur 0 -- -- 95
2019-09-19 02:00:00 12.7 2 Sudoeste 9 Sudoeste 0 -- -- 91
2019-09-19 01:00:00 13.2 6 Sudoeste 8 Sudoeste 0 -- -- 91
2019-09-19 00:00:00 14.3 2 Sudeste 18 Oeste 0 -- -- 87